HAZ2211 ZSHC-ZGGG
Flight info
| Callsign | HAZ2211 |
|---|---|
| Flight time | 1h 47m |
| Altitude | 32100 |
| Route | ELNE8D ELNEX A599 PLT W19 OLPAB OLPAB9 |
| Aircraft | B738/M-SDE2E3FGHIRWXY/LB1 |
Departure
| Time | 2026-05-05 07:45 |
|---|---|
| Airport | Hangzhou Xiaoshan International Airport (ZSHC) |
Arrival
| Time | 2026-05-05 09:33 |
|---|---|
| Airport | Guangzhou Baiyun International Airport (ZGGG) |
| Time | Latitude | Longitude | Altitude | Speed | Heading |
|---|---|---|---|---|---|
| 2026-05-05 07:41 | 30.24699 | 120.43437 | 28 ft | 10 kts | 16° |
| 2026-05-05 07:41 | 30.24763 | 120.43459 | 28 ft | 8 kts | 19° |
| 2026-05-05 07:41 | 30.24804 | 120.43497 | 28 ft | 6 kts | 65° |
| 2026-05-05 07:41 | 30.24822 | 120.43542 | 28 ft | 5 kts | 65° |
| 2026-05-05 07:42 | 30.24836 | 120.43578 | 28 ft | 4 kts | 65° |
| 2026-05-05 07:42 | 30.24853 | 120.43617 | 28 ft | 7 kts | 61° |
| 2026-05-05 07:42 | 30.24886 | 120.43687 | 28 ft | 12 kts | 62° |
| 2026-05-05 07:42 | 30.24933 | 120.43793 | 28 ft | 17 kts | 63° |
| 2026-05-05 07:43 | 30.24993 | 120.43937 | 28 ft | 22 kts | 65° |
| 2026-05-05 07:43 | 30.25103 | 120.44039 | 28 ft | 21 kts | 4° |
| 2026-05-05 07:43 | 30.25192 | 120.43942 | 28 ft | 17 kts | 293° |
| 2026-05-05 07:43 | 30.25200 | 120.43839 | 28 ft | 3 kts | 215° |
| 2026-05-05 07:44 | 30.25194 | 120.43836 | 28 ft | 2 kts | 205° |
| 2026-05-05 07:44 | 30.25114 | 120.43767 | 28 ft | 26 kts | 236° |
| 2026-05-05 07:44 | 30.24923 | 120.43368 | 28 ft | 92 kts | 242° |
| 2026-05-05 07:44 | 30.24526 | 120.42445 | 28 ft | 159 kts | 244° |
| 2026-05-05 07:45 | 30.23982 | 120.41144 | 366 ft | 186 kts | 244° |
| 2026-05-05 07:45 | 30.23439 | 120.39807 | 1140 ft | 189 kts | 239° |
| 2026-05-05 07:45 | 30.22791 | 120.38443 | 1830 ft | 195 kts | 238° |
| 2026-05-05 07:45 | 30.22135 | 120.37051 | 2223 ft | 206 kts | 239° |
| 2026-05-05 07:46 | 30.21448 | 120.35523 | 2587 ft | 220 kts | 240° |
| 2026-05-05 07:46 | 30.20729 | 120.33901 | 2888 ft | 239 kts | 240° |
| 2026-05-05 07:46 | 30.19946 | 120.32134 | 3375 ft | 251 kts | 240° |
| 2026-05-05 07:46 | 30.19136 | 120.30309 | 3953 ft | 258 kts | 240° |
| 2026-05-05 07:47 | 30.18318 | 120.28472 | 4636 ft | 261 kts | 241° |
| 2026-05-05 07:47 | 30.17487 | 120.26606 | 5335 ft | 263 kts | 241° |
| 2026-05-05 07:47 | 30.16645 | 120.24714 | 6036 ft | 264 kts | 241° |
| 2026-05-05 07:47 | 30.15807 | 120.22829 | 6713 ft | 266 kts | 242° |
| 2026-05-05 07:48 | 30.14961 | 120.20929 | 7369 ft | 268 kts | 242° |
| 2026-05-05 07:48 | 30.14082 | 120.19025 | 8042 ft | 270 kts | 239° |
| 2026-05-05 07:48 | 30.13049 | 120.17207 | 8698 ft | 272 kts | 235° |
| 2026-05-05 07:48 | 30.11926 | 120.15437 | 9378 ft | 274 kts | 234° |
| 2026-05-05 07:49 | 30.10774 | 120.13652 | 9952 ft | 278 kts | 234° |
| 2026-05-05 07:49 | 30.09617 | 120.11836 | 10407 ft | 287 kts | 235° |
| 2026-05-05 07:49 | 30.08432 | 120.09952 | 10933 ft | 294 kts | 236° |
| 2026-05-05 07:49 | 30.07237 | 120.08039 | 11566 ft | 296 kts | 236° |
| 2026-05-05 07:50 | 30.06014 | 120.06079 | 12208 ft | 299 kts | 236° |
| 2026-05-05 07:50 | 30.04790 | 120.04119 | 12841 ft | 301 kts | 236° |
| 2026-05-05 07:50 | 30.03557 | 120.02148 | 13509 ft | 303 kts | 237° |
| 2026-05-05 07:50 | 30.02329 | 120.00167 | 14135 ft | 305 kts | 238° |
| 2026-05-05 07:51 | 30.01183 | 119.98109 | 14623 ft | 313 kts | 241° |
| 2026-05-05 07:51 | 30.00047 | 119.95850 | 14766 ft | 333 kts | 243° |
| 2026-05-05 07:51 | 29.98876 | 119.93424 | 14771 ft | 356 kts | 243° |
| 2026-05-05 07:51 | 29.97647 | 119.90877 | 14779 ft | 367 kts | 243° |
| 2026-05-05 07:52 | 29.96394 | 119.88316 | 14781 ft | 365 kts | 242° |
| 2026-05-05 07:52 | 29.95126 | 119.85751 | 14786 ft | 366 kts | 242° |
| 2026-05-05 07:52 | 29.93850 | 119.83182 | 14788 ft | 365 kts | 242° |
| 2026-05-05 07:52 | 29.92576 | 119.80627 | 14787 ft | 365 kts | 242° |
| 2026-05-05 07:53 | 29.91309 | 119.78086 | 14789 ft | 367 kts | 242° |
| 2026-05-05 07:53 | 29.90025 | 119.75513 | 14786 ft | 366 kts | 242° |
| 2026-05-05 07:53 | 29.88752 | 119.72963 | 14789 ft | 367 kts | 242° |
| 2026-05-05 07:53 | 29.87467 | 119.70419 | 14792 ft | 367 kts | 241° |
| 2026-05-05 07:54 | 29.86052 | 119.67946 | 14794 ft | 368 kts | 235° |
| 2026-05-05 07:54 | 29.84319 | 119.65736 | 14842 ft | 376 kts | 225° |
| 2026-05-05 07:54 | 29.82278 | 119.63838 | 15602 ft | 377 kts | 219° |
| 2026-05-05 07:54 | 29.80119 | 119.62084 | 16378 ft | 377 kts | 217° |
| 2026-05-05 07:55 | 29.77935 | 119.60403 | 17052 ft | 379 kts | 216° |
| 2026-05-05 07:55 | 29.75736 | 119.58735 | 17666 ft | 381 kts | 216° |
| 2026-05-05 07:55 | 29.73474 | 119.57014 | 18313 ft | 384 kts | 216° |
| 2026-05-05 07:55 | 29.71266 | 119.55321 | 18938 ft | 386 kts | 216° |
| 2026-05-05 07:56 | 29.69007 | 119.53573 | 19491 ft | 390 kts | 217° |
| 2026-05-05 07:56 | 29.66733 | 119.51804 | 20069 ft | 392 kts | 217° |
| 2026-05-05 07:56 | 29.64523 | 119.49967 | 20708 ft | 392 kts | 221° |
| 2026-05-05 07:56 | 29.62451 | 119.47931 | 21288 ft | 392 kts | 226° |
| 2026-05-05 07:57 | 29.60498 | 119.45711 | 21807 ft | 394 kts | 229° |
| 2026-05-05 07:57 | 29.58615 | 119.43393 | 22317 ft | 397 kts | 230° |
| 2026-05-05 07:57 | 29.56752 | 119.41016 | 22875 ft | 398 kts | 231° |
| 2026-05-05 07:57 | 29.54900 | 119.38628 | 23299 ft | 402 kts | 231° |
| 2026-05-05 07:58 | 29.53030 | 119.36212 | 23923 ft | 400 kts | 231° |
| 2026-05-05 07:58 | 29.51174 | 119.33822 | 24444 ft | 402 kts | 231° |
| 2026-05-05 07:58 | 29.49282 | 119.31390 | 24852 ft | 405 kts | 231° |
| 2026-05-05 07:58 | 29.47406 | 119.28989 | 25306 ft | 407 kts | 230° |
| 2026-05-05 07:59 | 29.45495 | 119.26550 | 25811 ft | 407 kts | 230° |
| 2026-05-05 07:59 | 29.43617 | 119.24158 | 26306 ft | 407 kts | 230° |
| 2026-05-05 07:59 | 29.41693 | 119.21712 | 26674 ft | 410 kts | 230° |
| 2026-05-05 07:59 | 29.39780 | 119.19282 | 27146 ft | 410 kts | 230° |
| 2026-05-05 08:00 | 29.37855 | 119.16838 | 27476 ft | 414 kts | 230° |
| 2026-05-05 08:00 | 29.35922 | 119.14388 | 27915 ft | 414 kts | 230° |
| 2026-05-05 08:00 | 29.33964 | 119.11910 | 28317 ft | 415 kts | 230° |
| 2026-05-05 08:00 | 29.32030 | 119.09466 | 28662 ft | 418 kts | 230° |
| 2026-05-05 08:01 | 29.30074 | 119.06998 | 29226 ft | 413 kts | 230° |
| 2026-05-05 08:01 | 29.28133 | 119.04554 | 29817 ft | 408 kts | 230° |
| 2026-05-05 08:01 | 29.26214 | 119.02138 | 30252 ft | 406 kts | 231° |
| 2026-05-05 08:01 | 29.24310 | 118.99741 | 30621 ft | 405 kts | 231° |
| 2026-05-05 08:02 | 29.22400 | 118.97337 | 30938 ft | 405 kts | 231° |
| 2026-05-05 08:02 | 29.20517 | 118.94968 | 31316 ft | 404 kts | 231° |
| 2026-05-05 08:02 | 29.18599 | 118.92557 | 31687 ft | 402 kts | 231° |
| 2026-05-05 08:02 | 29.16719 | 118.90194 | 32020 ft | 400 kts | 231° |
| 2026-05-05 08:03 | 29.12969 | 118.85484 | 32064 ft | 399 kts | 231° |
| 2026-05-05 08:03 | 29.09197 | 118.80759 | 32066 ft | 397 kts | 231° |
| 2026-05-05 08:04 | 29.05424 | 118.76035 | 32060 ft | 398 kts | 231° |
| 2026-05-05 08:04 | 29.01675 | 118.71346 | 32049 ft | 397 kts | 231° |
| 2026-05-05 08:05 | 28.97942 | 118.66685 | 32045 ft | 398 kts | 231° |
| 2026-05-05 08:05 | 28.94171 | 118.61983 | 32053 ft | 398 kts | 231° |
| 2026-05-05 08:06 | 28.90397 | 118.57278 | 32053 ft | 399 kts | 231° |
| 2026-05-05 08:06 | 28.86638 | 118.52599 | 32060 ft | 397 kts | 231° |
| 2026-05-05 08:07 | 28.82897 | 118.47948 | 32054 ft | 397 kts | 231° |
| 2026-05-05 08:07 | 28.79128 | 118.43268 | 32057 ft | 397 kts | 231° |
| 2026-05-05 08:08 | 28.75373 | 118.38611 | 32058 ft | 398 kts | 231° |
| 2026-05-05 08:08 | 28.71598 | 118.33935 | 32056 ft | 396 kts | 231° |
| 2026-05-05 08:09 | 28.67851 | 118.29297 | 32057 ft | 398 kts | 231° |
| 2026-05-05 08:09 | 28.64064 | 118.24616 | 32055 ft | 399 kts | 231° |
| 2026-05-05 08:10 | 28.60320 | 118.19996 | 32071 ft | 395 kts | 231° |
| 2026-05-05 08:10 | 28.56563 | 118.15362 | 32079 ft | 397 kts | 231° |
| 2026-05-05 08:11 | 28.52792 | 118.10716 | 32065 ft | 397 kts | 231° |
| 2026-05-05 08:11 | 28.49033 | 118.06089 | 32061 ft | 397 kts | 231° |
| 2026-05-05 08:12 | 28.45263 | 118.01457 | 32056 ft | 396 kts | 231° |
| 2026-05-05 08:12 | 28.41501 | 117.96840 | 32062 ft | 397 kts | 231° |
| 2026-05-05 08:13 | 28.37700 | 117.92284 | 32061 ft | 397 kts | 231° |
| 2026-05-05 08:13 | 28.33856 | 117.87766 | 32064 ft | 395 kts | 230° |
| 2026-05-05 08:14 | 28.30002 | 117.83241 | 32061 ft | 396 kts | 230° |
| 2026-05-05 08:14 | 28.26156 | 117.78723 | 32052 ft | 395 kts | 231° |
| 2026-05-05 08:15 | 28.22340 | 117.74231 | 32052 ft | 396 kts | 231° |
| 2026-05-05 08:15 | 28.18470 | 117.69679 | 32064 ft | 398 kts | 231° |
| 2026-05-05 08:16 | 28.14626 | 117.65166 | 32062 ft | 396 kts | 231° |
| 2026-05-05 08:16 | 28.10788 | 117.60667 | 32073 ft | 394 kts | 231° |
| 2026-05-05 08:17 | 28.06982 | 117.56204 | 32084 ft | 393 kts | 231° |
| 2026-05-05 08:17 | 28.03168 | 117.51734 | 32067 ft | 396 kts | 231° |
| 2026-05-05 08:18 | 27.99309 | 117.47215 | 32061 ft | 394 kts | 231° |
| 2026-05-05 08:18 | 27.95464 | 117.42718 | 32078 ft | 396 kts | 231° |
| 2026-05-05 08:19 | 27.91628 | 117.38242 | 32083 ft | 396 kts | 231° |
| 2026-05-05 08:19 | 27.87797 | 117.33772 | 32076 ft | 398 kts | 231° |
| 2026-05-05 08:20 | 27.83926 | 117.29264 | 32091 ft | 395 kts | 231° |
| 2026-05-05 08:20 | 27.80064 | 117.24772 | 32094 ft | 395 kts | 231° |
| 2026-05-05 08:21 | 27.76205 | 117.20282 | 32089 ft | 396 kts | 231° |
| 2026-05-05 08:21 | 27.72343 | 117.15797 | 32080 ft | 396 kts | 231° |
| 2026-05-05 08:22 | 27.68473 | 117.11307 | 32089 ft | 396 kts | 231° |
| 2026-05-05 08:22 | 27.64620 | 117.06841 | 32088 ft | 396 kts | 231° |
| 2026-05-05 08:23 | 27.60770 | 117.02387 | 32093 ft | 396 kts | 231° |
| 2026-05-05 08:23 | 27.56887 | 116.97892 | 32093 ft | 396 kts | 231° |
| 2026-05-05 08:24 | 27.53016 | 116.93420 | 32092 ft | 397 kts | 231° |
| 2026-05-05 08:24 | 27.49167 | 116.88957 | 32097 ft | 395 kts | 232° |
| 2026-05-05 08:25 | 27.45339 | 116.84473 | 32082 ft | 395 kts | 232° |
| 2026-05-05 08:25 | 27.41514 | 116.79990 | 32081 ft | 395 kts | 232° |
| 2026-05-05 08:26 | 27.37713 | 116.75542 | 32081 ft | 395 kts | 232° |
| 2026-05-05 08:26 | 27.33854 | 116.71035 | 32082 ft | 395 kts | 232° |
| 2026-05-05 08:27 | 27.30030 | 116.66578 | 32090 ft | 395 kts | 232° |
| 2026-05-05 08:27 | 27.26181 | 116.62096 | 32083 ft | 394 kts | 232° |
| 2026-05-05 08:28 | 27.22360 | 116.57655 | 32077 ft | 395 kts | 232° |
| 2026-05-05 08:28 | 27.18562 | 116.53192 | 32078 ft | 394 kts | 233° |
| 2026-05-05 08:29 | 27.14812 | 116.48635 | 32071 ft | 396 kts | 234° |
| 2026-05-05 08:30 | 27.09228 | 116.41841 | 32092 ft | 392 kts | 234° |
| 2026-05-05 08:30 | 27.05505 | 116.37324 | 32089 ft | 393 kts | 234° |
| 2026-05-05 08:31 | 27.01763 | 116.32803 | 32084 ft | 393 kts | 233° |
| 2026-05-05 08:31 | 26.98022 | 116.28293 | 32084 ft | 391 kts | 233° |
| 2026-05-05 08:32 | 26.94295 | 116.23800 | 32080 ft | 393 kts | 233° |
| 2026-05-05 08:32 | 26.90543 | 116.19278 | 32063 ft | 392 kts | 234° |
| 2026-05-05 08:33 | 26.86835 | 116.14762 | 32072 ft | 391 kts | 233° |
| 2026-05-05 08:33 | 26.83108 | 116.10216 | 32063 ft | 393 kts | 233° |
| 2026-05-05 08:34 | 26.79395 | 116.05694 | 32059 ft | 393 kts | 234° |
| 2026-05-05 08:34 | 26.75667 | 116.01166 | 32059 ft | 392 kts | 233° |
| 2026-05-05 08:35 | 26.71960 | 115.96668 | 32057 ft | 393 kts | 234° |
| 2026-05-05 08:35 | 26.68230 | 115.92145 | 32055 ft | 394 kts | 234° |
| 2026-05-05 08:36 | 26.64502 | 115.87636 | 32057 ft | 393 kts | 234° |
| 2026-05-05 08:36 | 26.60753 | 115.83102 | 32060 ft | 394 kts | 234° |
| 2026-05-05 08:37 | 26.57010 | 115.78580 | 32057 ft | 393 kts | 234° |
| 2026-05-05 08:37 | 26.53264 | 115.74061 | 32061 ft | 394 kts | 234° |
| 2026-05-05 08:38 | 26.49524 | 115.69548 | 32055 ft | 395 kts | 234° |
| 2026-05-05 08:38 | 26.45780 | 115.65037 | 32061 ft | 393 kts | 234° |
| 2026-05-05 08:39 | 26.42027 | 115.60520 | 32060 ft | 396 kts | 234° |
| 2026-05-05 08:39 | 26.38285 | 115.56022 | 32069 ft | 394 kts | 234° |
| 2026-05-05 08:40 | 26.34515 | 115.51497 | 32070 ft | 395 kts | 234° |
| 2026-05-05 08:40 | 26.30780 | 115.47020 | 32062 ft | 395 kts | 234° |
| 2026-05-05 08:41 | 26.27010 | 115.42499 | 32052 ft | 396 kts | 234° |
| 2026-05-05 08:41 | 26.23225 | 115.37967 | 32047 ft | 397 kts | 234° |
| 2026-05-05 08:42 | 26.19453 | 115.33457 | 32037 ft | 399 kts | 234° |
| 2026-05-05 08:42 | 26.15673 | 115.28941 | 32036 ft | 397 kts | 234° |
| 2026-05-05 08:43 | 26.11897 | 115.24438 | 32035 ft | 398 kts | 234° |
| 2026-05-05 08:43 | 26.08097 | 115.19906 | 32040 ft | 398 kts | 234° |
| 2026-05-05 08:44 | 26.04291 | 115.15376 | 32040 ft | 397 kts | 234° |
| 2026-05-05 08:44 | 26.00521 | 115.10892 | 32040 ft | 397 kts | 234° |
| 2026-05-05 08:45 | 25.96733 | 115.06387 | 32045 ft | 398 kts | 234° |
| 2026-05-05 08:45 | 25.92915 | 115.01852 | 32049 ft | 399 kts | 234° |
| 2026-05-05 08:46 | 25.89116 | 114.97349 | 32056 ft | 400 kts | 234° |
| 2026-05-05 08:46 | 25.85288 | 114.92815 | 32059 ft | 401 kts | 234° |
| 2026-05-05 08:47 | 25.81051 | 114.88663 | 32051 ft | 414 kts | 220° |
| 2026-05-05 08:47 | 25.75639 | 114.86143 | 32054 ft | 433 kts | 205° |
| 2026-05-05 08:48 | 25.69687 | 114.84533 | 32046 ft | 439 kts | 202° |
| 2026-05-05 08:48 | 25.63661 | 114.83112 | 32042 ft | 442 kts | 201° |
| 2026-05-05 08:49 | 25.57625 | 114.81685 | 32036 ft | 442 kts | 201° |
| 2026-05-05 08:49 | 25.51635 | 114.80240 | 32038 ft | 440 kts | 202° |
| 2026-05-05 08:50 | 25.45638 | 114.78773 | 32035 ft | 441 kts | 202° |
| 2026-05-05 08:50 | 25.39626 | 114.77290 | 32032 ft | 441 kts | 202° |
| 2026-05-05 08:51 | 25.33954 | 114.75890 | 32036 ft | 441 kts | 202° |
| 2026-05-05 08:51 | 25.27907 | 114.74395 | 32032 ft | 441 kts | 202° |
| 2026-05-05 08:52 | 25.21902 | 114.72916 | 32034 ft | 440 kts | 202° |
| 2026-05-05 08:52 | 25.15848 | 114.71421 | 32039 ft | 443 kts | 202° |
| 2026-05-05 08:53 | 25.09792 | 114.69930 | 32049 ft | 444 kts | 202° |
| 2026-05-05 08:53 | 25.03732 | 114.68439 | 32050 ft | 442 kts | 202° |
| 2026-05-05 08:54 | 24.97712 | 114.66965 | 32054 ft | 442 kts | 202° |
| 2026-05-05 08:54 | 24.91644 | 114.65477 | 32054 ft | 442 kts | 202° |
| 2026-05-05 08:55 | 24.85634 | 114.64003 | 32057 ft | 444 kts | 202° |
| 2026-05-05 08:55 | 24.79661 | 114.62537 | 32047 ft | 443 kts | 202° |
| 2026-05-05 08:56 | 24.73863 | 114.61079 | 32049 ft | 441 kts | 204° |
| 2026-05-05 08:57 | 24.63178 | 114.56031 | 32058 ft | 422 kts | 218° |
| 2026-05-05 08:57 | 24.58150 | 114.52821 | 32063 ft | 422 kts | 219° |
| 2026-05-05 08:58 | 24.53091 | 114.49553 | 32067 ft | 422 kts | 219° |
| 2026-05-05 08:58 | 24.47988 | 114.46289 | 32061 ft | 422 kts | 219° |
| 2026-05-05 08:58 | 24.45440 | 114.44671 | 31805 ft | 425 kts | 219° |
| 2026-05-05 08:59 | 24.42839 | 114.43024 | 31511 ft | 424 kts | 219° |
| 2026-05-05 08:59 | 24.40306 | 114.41428 | 31228 ft | 423 kts | 218° |
| 2026-05-05 08:59 | 24.37742 | 114.39817 | 30940 ft | 424 kts | 218° |
| 2026-05-05 08:59 | 24.35151 | 114.38191 | 30650 ft | 425 kts | 218° |
| 2026-05-05 09:00 | 24.32566 | 114.36569 | 30358 ft | 425 kts | 218° |
| 2026-05-05 09:00 | 24.29997 | 114.34960 | 30073 ft | 425 kts | 218° |
| 2026-05-05 09:00 | 24.27421 | 114.33347 | 29784 ft | 428 kts | 217° |
| 2026-05-05 09:00 | 24.24834 | 114.31728 | 29490 ft | 428 kts | 217° |
| 2026-05-05 09:01 | 24.22246 | 114.30110 | 29197 ft | 428 kts | 217° |
| 2026-05-05 09:01 | 24.19648 | 114.28487 | 28905 ft | 428 kts | 217° |
| 2026-05-05 09:01 | 24.17051 | 114.26864 | 28598 ft | 429 kts | 217° |
| 2026-05-05 09:01 | 24.14450 | 114.25238 | 28282 ft | 432 kts | 217° |
| 2026-05-05 09:02 | 24.11863 | 114.23516 | 27972 ft | 429 kts | 221° |
| 2026-05-05 09:02 | 24.09512 | 114.21491 | 27661 ft | 422 kts | 229° |
| 2026-05-05 09:02 | 24.07559 | 114.19141 | 27354 ft | 416 kts | 238° |
| 2026-05-05 09:02 | 24.05936 | 114.16509 | 27046 ft | 414 kts | 243° |
| 2026-05-05 09:03 | 24.04499 | 114.13783 | 26740 ft | 415 kts | 246° |
| 2026-05-05 09:03 | 24.03127 | 114.10983 | 26432 ft | 415 kts | 247° |
| 2026-05-05 09:03 | 24.01788 | 114.08167 | 26127 ft | 417 kts | 247° |
| 2026-05-05 09:03 | 24.00450 | 114.05328 | 25820 ft | 419 kts | 247° |
| 2026-05-05 09:04 | 23.99120 | 114.02515 | 25518 ft | 420 kts | 247° |
| 2026-05-05 09:04 | 23.97754 | 113.99644 | 25216 ft | 423 kts | 247° |
| 2026-05-05 09:04 | 23.96399 | 113.96812 | 24914 ft | 423 kts | 246° |
| 2026-05-05 09:04 | 23.95025 | 113.93958 | 24606 ft | 421 kts | 246° |
| 2026-05-05 09:05 | 23.93647 | 113.91106 | 24303 ft | 421 kts | 246° |
| 2026-05-05 09:05 | 23.92285 | 113.88296 | 24003 ft | 420 kts | 246° |
| 2026-05-05 09:05 | 23.90911 | 113.85468 | 23707 ft | 419 kts | 246° |
| 2026-05-05 09:05 | 23.89535 | 113.82639 | 23413 ft | 418 kts | 246° |
| 2026-05-05 09:06 | 23.88172 | 113.79837 | 23123 ft | 418 kts | 246° |
| 2026-05-05 09:06 | 23.86804 | 113.77027 | 22831 ft | 417 kts | 246° |
| 2026-05-05 09:06 | 23.85441 | 113.74229 | 22541 ft | 417 kts | 246° |
| 2026-05-05 09:06 | 23.84079 | 113.71433 | 22262 ft | 416 kts | 246° |
| 2026-05-05 09:07 | 23.82721 | 113.68648 | 21983 ft | 414 kts | 246° |
| 2026-05-05 09:07 | 23.81343 | 113.65865 | 21703 ft | 411 kts | 244° |
| 2026-05-05 09:07 | 23.79797 | 113.63202 | 21421 ft | 412 kts | 238° |
| 2026-05-05 09:07 | 23.77901 | 113.60850 | 21144 ft | 416 kts | 229° |
| 2026-05-05 09:08 | 23.75624 | 113.58842 | 20868 ft | 421 kts | 220° |
| 2026-05-05 09:08 | 23.73140 | 113.57104 | 20588 ft | 421 kts | 216° |
| 2026-05-05 09:08 | 23.70597 | 113.55504 | 20307 ft | 419 kts | 214° |
| 2026-05-05 09:08 | 23.68060 | 113.53952 | 20026 ft | 417 kts | 214° |
| 2026-05-05 09:09 | 23.65515 | 113.52380 | 19742 ft | 415 kts | 215° |
| 2026-05-05 09:09 | 23.63001 | 113.50792 | 19460 ft | 413 kts | 215° |
| 2026-05-05 09:09 | 23.60451 | 113.49316 | 19176 ft | 414 kts | 210° |
| 2026-05-05 09:09 | 23.57777 | 113.48158 | 18898 ft | 416 kts | 204° |
| 2026-05-05 09:10 | 23.54952 | 113.47205 | 18613 ft | 417 kts | 201° |
| 2026-05-05 09:10 | 23.52153 | 113.46395 | 18333 ft | 416 kts | 199° |
| 2026-05-05 09:10 | 23.49291 | 113.45633 | 18042 ft | 412 kts | 199° |
| 2026-05-05 09:10 | 23.46553 | 113.44930 | 17756 ft | 401 kts | 199° |
| 2026-05-05 09:11 | 23.43828 | 113.44232 | 17469 ft | 390 kts | 199° |
| 2026-05-05 09:11 | 23.41219 | 113.43555 | 17188 ft | 379 kts | 199° |
| 2026-05-05 09:11 | 23.38670 | 113.42884 | 16907 ft | 369 kts | 199° |
| 2026-05-05 09:11 | 23.36208 | 113.42225 | 16627 ft | 359 kts | 200° |
| 2026-05-05 09:12 | 23.33793 | 113.41572 | 16345 ft | 350 kts | 200° |
| 2026-05-05 09:12 | 23.31445 | 113.40934 | 16064 ft | 343 kts | 200° |
| 2026-05-05 09:12 | 23.29110 | 113.40297 | 15781 ft | 340 kts | 200° |
| 2026-05-05 09:12 | 23.26798 | 113.39663 | 15502 ft | 341 kts | 200° |
| 2026-05-05 09:13 | 23.24480 | 113.39027 | 15219 ft | 341 kts | 199° |
| 2026-05-05 09:13 | 23.22168 | 113.38397 | 14935 ft | 339 kts | 199° |
| 2026-05-05 09:13 | 23.19884 | 113.37777 | 14651 ft | 339 kts | 199° |
| 2026-05-05 09:13 | 23.17585 | 113.37155 | 14364 ft | 338 kts | 199° |
| 2026-05-05 09:14 | 23.15271 | 113.36531 | 14055 ft | 337 kts | 199° |
| 2026-05-05 09:14 | 23.13003 | 113.35921 | 13564 ft | 335 kts | 198° |
| 2026-05-05 09:14 | 23.10755 | 113.35320 | 13085 ft | 325 kts | 199° |
| 2026-05-05 09:14 | 23.08594 | 113.34742 | 12620 ft | 315 kts | 198° |
| 2026-05-05 09:15 | 23.06472 | 113.34164 | 12144 ft | 306 kts | 198° |
| 2026-05-05 09:15 | 23.04412 | 113.33598 | 11666 ft | 299 kts | 198° |
| 2026-05-05 09:15 | 23.02416 | 113.33053 | 11194 ft | 293 kts | 198° |
| 2026-05-05 09:15 | 23.00468 | 113.32523 | 10790 ft | 285 kts | 198° |
| 2026-05-05 09:16 | 22.98558 | 113.32014 | 10730 ft | 280 kts | 198° |
| 2026-05-05 09:16 | 22.96625 | 113.31497 | 10727 ft | 284 kts | 198° |
| 2026-05-05 09:16 | 22.94685 | 113.31043 | 10722 ft | 284 kts | 194° |
| 2026-05-05 09:16 | 22.92713 | 113.30659 | 10724 ft | 285 kts | 193° |
| 2026-05-05 09:17 | 22.90753 | 113.30296 | 10723 ft | 284 kts | 193° |
| 2026-05-05 09:17 | 22.88824 | 113.29944 | 10723 ft | 273 kts | 193° |
| 2026-05-05 09:17 | 22.86948 | 113.29603 | 10688 ft | 274 kts | 193° |
| 2026-05-05 09:17 | 22.85068 | 113.29261 | 10319 ft | 270 kts | 193° |
| 2026-05-05 09:18 | 22.83234 | 113.28925 | 9845 ft | 267 kts | 193° |
| 2026-05-05 09:18 | 22.81400 | 113.28582 | 9367 ft | 264 kts | 193° |
| 2026-05-05 09:18 | 22.79574 | 113.28235 | 8881 ft | 262 kts | 193° |
| 2026-05-05 09:18 | 22.77785 | 113.27882 | 8399 ft | 260 kts | 193° |
| 2026-05-05 09:19 | 22.76014 | 113.27518 | 7917 ft | 257 kts | 193° |
| 2026-05-05 09:19 | 22.74251 | 113.27145 | 7439 ft | 255 kts | 193° |
| 2026-05-05 09:19 | 22.72524 | 113.26769 | 6959 ft | 253 kts | 194° |
| 2026-05-05 09:19 | 22.70920 | 113.26042 | 6447 ft | 253 kts | 221° |
| 2026-05-05 09:20 | 22.69951 | 113.24493 | 5965 ft | 250 kts | 256° |
| 2026-05-05 09:20 | 22.69973 | 113.22671 | 5864 ft | 241 kts | 281° |
| 2026-05-05 09:20 | 22.70390 | 113.20891 | 5867 ft | 243 kts | 283° |
| 2026-05-05 09:20 | 22.70903 | 113.19162 | 5890 ft | 241 kts | 294° |
| 2026-05-05 09:21 | 22.72039 | 113.17829 | 5823 ft | 241 kts | 332° |
| 2026-05-05 09:21 | 22.73681 | 113.17444 | 5841 ft | 245 kts | 3° |
| 2026-05-05 09:21 | 22.75363 | 113.17769 | 5832 ft | 245 kts | 12° |
| 2026-05-05 09:21 | 22.77037 | 113.18176 | 5831 ft | 244 kts | 10° |
| 2026-05-05 09:22 | 22.78737 | 113.18509 | 5833 ft | 244 kts | 8° |
| 2026-05-05 09:22 | 22.80421 | 113.18792 | 5834 ft | 244 kts | 7° |
| 2026-05-05 09:22 | 22.82118 | 113.19067 | 5834 ft | 244 kts | 7° |
| 2026-05-05 09:22 | 22.83789 | 113.19341 | 5831 ft | 244 kts | 7° |
| 2026-05-05 09:23 | 22.85485 | 113.19624 | 5830 ft | 243 kts | 7° |
| 2026-05-05 09:23 | 22.87173 | 113.19907 | 5835 ft | 245 kts | 7° |
| 2026-05-05 09:23 | 22.88865 | 113.20190 | 5834 ft | 245 kts | 7° |
| 2026-05-05 09:23 | 22.90556 | 113.20472 | 5837 ft | 246 kts | 7° |
| 2026-05-05 09:24 | 22.92274 | 113.20757 | 5834 ft | 246 kts | 7° |
| 2026-05-05 09:24 | 22.93980 | 113.21042 | 5836 ft | 246 kts | 7° |
| 2026-05-05 09:24 | 22.95684 | 113.21327 | 5836 ft | 246 kts | 7° |
| 2026-05-05 09:24 | 22.97370 | 113.21628 | 5835 ft | 245 kts | 11° |
| 2026-05-05 09:25 | 22.99064 | 113.22045 | 5837 ft | 245 kts | 13° |
| 2026-05-05 09:25 | 23.00731 | 113.22508 | 5835 ft | 246 kts | 13° |
| 2026-05-05 09:25 | 23.02375 | 113.22977 | 5833 ft | 245 kts | 14° |
| 2026-05-05 09:25 | 23.04030 | 113.23467 | 5717 ft | 238 kts | 14° |
| 2026-05-05 09:26 | 23.05607 | 113.23913 | 5591 ft | 230 kts | 13° |
| 2026-05-05 09:26 | 23.07152 | 113.24331 | 5479 ft | 222 kts | 13° |
| 2026-05-05 09:26 | 23.08623 | 113.24721 | 5434 ft | 210 kts | 13° |
| 2026-05-05 09:26 | 23.10005 | 113.25091 | 5280 ft | 200 kts | 13° |
| 2026-05-05 09:27 | 23.11369 | 113.25452 | 4915 ft | 201 kts | 13° |
| 2026-05-05 09:27 | 23.12728 | 113.25812 | 4611 ft | 198 kts | 13° |
| 2026-05-05 09:27 | 23.14055 | 113.26167 | 4341 ft | 194 kts | 13° |
| 2026-05-05 09:27 | 23.15361 | 113.26517 | 4074 ft | 190 kts | 14° |
| 2026-05-05 09:28 | 23.16628 | 113.26857 | 3853 ft | 181 kts | 14° |
| 2026-05-05 09:28 | 23.17840 | 113.27182 | 3568 ft | 176 kts | 14° |
| 2026-05-05 09:28 | 23.19027 | 113.27499 | 3314 ft | 168 kts | 14° |
| 2026-05-05 09:28 | 23.20141 | 113.27798 | 3100 ft | 161 kts | 15° |
| 2026-05-05 09:29 | 23.21223 | 113.28088 | 2890 ft | 160 kts | 15° |
| 2026-05-05 09:29 | 23.22309 | 113.28380 | 2671 ft | 158 kts | 15° |
| 2026-05-05 09:29 | 23.23383 | 113.28668 | 2456 ft | 157 kts | 15° |
| 2026-05-05 09:29 | 23.24437 | 113.28952 | 2248 ft | 154 kts | 15° |
| 2026-05-05 09:30 | 23.25497 | 113.29237 | 2037 ft | 155 kts | 15° |
| 2026-05-05 09:30 | 23.26545 | 113.29518 | 1827 ft | 155 kts | 15° |
| 2026-05-05 09:30 | 23.27598 | 113.29801 | 1620 ft | 154 kts | 15° |
| 2026-05-05 09:30 | 23.28647 | 113.30083 | 1415 ft | 153 kts | 15° |
| 2026-05-05 09:31 | 23.29624 | 113.30345 | 1225 ft | 153 kts | 15° |
| 2026-05-05 09:31 | 23.30666 | 113.30625 | 1024 ft | 152 kts | 15° |
| 2026-05-05 09:31 | 23.31701 | 113.30904 | 823 ft | 151 kts | 15° |
| 2026-05-05 09:31 | 23.32731 | 113.31181 | 622 ft | 151 kts | 15° |
| 2026-05-05 09:32 | 23.33757 | 113.31456 | 424 ft | 151 kts | 15° |
| 2026-05-05 09:32 | 23.34771 | 113.31729 | 232 ft | 150 kts | 15° |
| 2026-05-05 09:32 | 23.35785 | 113.31993 | 75 ft | 148 kts | 14° |
| 2026-05-05 09:32 | 23.36689 | 113.32246 | 51 ft | 103 kts | 14° |
| 2026-05-05 09:33 | 23.37189 | 113.32378 | 51 ft | 46 kts | 15° |
| 2026-05-05 09:33 | 23.37451 | 113.32445 | 51 ft | 14 kts | 13° |
| 2026-05-05 09:33 | 23.37544 | 113.32470 | 51 ft | 12 kts | 14° |
| 2026-05-05 09:33 | 23.37629 | 113.32479 | 51 ft | 11 kts | 347° |
| 2026-05-05 09:34 | 23.37704 | 113.32450 | 51 ft | 10 kts | 340° |
| 2026-05-05 09:34 | 23.37774 | 113.32424 | 51 ft | 10 kts | 340° |
| 2026-05-05 09:34 | 23.37789 | 113.32372 | 51 ft | 7 kts | 226° |
| 2026-05-05 09:34 | 23.37738 | 113.32352 | 51 ft | 7 kts | 194° |
| 2026-05-05 09:35 | 23.37691 | 113.32339 | 51 ft | 6 kts | 194° |
| 2026-05-05 09:35 | 23.37570 | 113.32295 | 51 ft | 12 kts | 234° |
| 2026-05-05 09:35 | 23.37577 | 113.32205 | 51 ft | 11 kts | 283° |
| 2026-05-05 09:36 | 23.37550 | 113.32153 | 51 ft | 8 kts | 154° |
| 2026-05-05 09:36 | 23.37502 | 113.32188 | 51 ft | 6 kts | 176° |
| 2026-05-05 09:36 | 23.37452 | 113.32177 | 51 ft | 6 kts | 191° |
| 2026-05-05 09:36 | 23.37400 | 113.32162 | 51 ft | 7 kts | 217° |
| 2026-05-05 09:37 | 23.37383 | 113.32101 | 51 ft | 8 kts | 272° |
| 2026-05-05 09:37 | 23.37395 | 113.32046 | 51 ft | 5 kts | 284° |
| 2026-05-05 09:37 | 23.37398 | 113.32034 | 51 ft | 0 kts | 284° |
| 2026-05-05 09:37 | 23.37398 | 113.32032 | 51 ft | 0 kts | 284° |